createdAt,value
2018-06-15T00:00:36.333Z,0.00
2018-06-15T00:01:36.231Z,0.00
2018-06-15T00:02:36.139Z,0.00
2018-06-15T00:03:36.038Z,0.00
2018-06-15T00:04:35.945Z,0.00
2018-06-15T00:05:35.854Z,0.00
2018-06-15T00:06:35.751Z,0.00
2018-06-15T00:07:35.659Z,0.00
2018-06-15T00:08:35.569Z,0.00
2018-06-15T00:09:35.466Z,0.00
2018-06-15T00:10:35.374Z,0.00
2018-06-15T00:11:35.271Z,0.00
2018-06-15T00:12:35.181Z,0.00
2018-06-15T00:13:35.091Z,0.00
2018-06-15T00:14:34.986Z,0.00
2018-06-15T00:15:34.896Z,0.00
2018-06-15T00:16:34.794Z,0.00
2018-06-15T00:17:34.701Z,0.00
2018-06-15T00:18:34.611Z,0.00
2018-06-15T00:19:34.508Z,0.00
2018-06-15T00:20:34.416Z,0.00
2018-06-15T00:21:34.314Z,0.00
2018-06-15T00:22:34.224Z,0.00
2018-06-15T00:23:34.130Z,0.00
2018-06-15T00:24:34.028Z,0.00
2018-06-15T00:25:33.939Z,0.00
2018-06-15T00:26:33.835Z,0.00
2018-06-15T00:27:33.743Z,0.00
2018-06-15T00:28:33.652Z,0.00
2018-06-15T00:29:33.561Z,0.00
2018-06-15T00:30:33.458Z,0.00
2018-06-15T00:31:33.357Z,0.00
2018-06-15T00:32:33.266Z,0.00
2018-06-15T00:33:33.173Z,0.00
2018-06-15T00:34:33.070Z,0.00
2018-06-15T00:35:32.983Z,0.00
2018-06-15T00:36:32.888Z,0.00
2018-06-15T00:37:32.786Z,0.00
2018-06-15T00:38:32.696Z,0.00
2018-06-15T00:39:32.592Z,0.00
2018-06-15T00:40:32.501Z,0.00
2018-06-15T00:41:32.410Z,0.00
2018-06-15T00:42:32.307Z,0.00
2018-06-15T00:43:32.215Z,0.00
2018-06-15T00:44:32.112Z,0.00
2018-06-15T00:45:32.023Z,0.00
2018-06-15T00:46:31.931Z,0.00
2018-06-15T00:47:31.828Z,0.00
2018-06-15T00:48:31.737Z,0.00
2018-06-15T00:49:31.680Z,0.00
2018-06-15T00:50:31.542Z,0.00
2018-06-15T00:51:31.456Z,0.00
2018-06-15T00:52:31.349Z,0.00
2018-06-15T00:53:31.257Z,0.00
2018-06-15T00:54:31.154Z,0.00
2018-06-15T00:55:31.063Z,0.00
2018-06-15T00:56:30.976Z,0.00
2018-06-15T00:57:30.868Z,0.00
2018-06-15T00:58:30.779Z,0.00
2018-06-15T00:59:30.676Z,0.00
2018-06-15T01:00:30.834Z,0.00
2018-06-15T01:01:30.493Z,0.00
2018-06-15T01:02:30.391Z,0.00
2018-06-15T01:03:30.299Z,0.00
2018-06-15T01:04:30.195Z,0.00
2018-06-15T01:05:30.107Z,0.00
2018-06-15T01:06:30.015Z,0.00
2018-06-15T01:07:29.911Z,0.00
2018-06-15T01:08:29.821Z,0.00
2018-06-15T01:09:29.718Z,0.00
2018-06-15T01:10:29.625Z,0.00
2018-06-15T01:11:29.538Z,0.00
2018-06-15T01:12:29.433Z,0.00
2018-06-15T01:13:29.341Z,0.00
2018-06-15T01:14:29.238Z,0.00
2018-06-15T01:15:29.151Z,0.00
2018-06-15T01:16:29.057Z,0.00
2018-06-15T01:17:28.953Z,0.00
2018-06-15T01:18:28.887Z,0.00
2018-06-15T01:19:28.759Z,0.00
2018-06-15T01:20:28.918Z,0.00
2018-06-15T01:21:28.577Z,0.00
2018-06-15T01:22:28.475Z,0.00
2018-06-15T01:23:28.383Z,0.00
2018-06-15T01:24:28.281Z,0.00
2018-06-15T01:25:28.189Z,0.00
2018-06-15T01:26:28.098Z,0.00
2018-06-15T01:27:27.995Z,0.00
2018-06-15T01:28:27.905Z,0.00
2018-06-15T01:29:27.813Z,0.00
2018-06-15T01:30:27.710Z,0.00
2018-06-15T01:31:27.620Z,0.00
2018-06-15T01:32:27.517Z,0.00
2018-06-15T01:33:27.425Z,0.00
2018-06-15T01:34:27.326Z,0.00
2018-06-15T01:35:27.232Z,0.00
2018-06-15T01:36:27.140Z,0.00
2018-06-15T01:37:27.037Z,0.00
2018-06-15T01:38:26.947Z,0.00
2018-06-15T01:39:26.856Z,0.00
2018-06-15T01:40:26.752Z,0.00
2018-06-15T01:41:26.665Z,0.00
2018-06-15T01:42:26.558Z,0.00
2018-06-15T01:43:26.467Z,0.00
2018-06-15T01:44:26.377Z,0.00
2018-06-15T01:45:26.273Z,0.00
2018-06-15T01:46:26.182Z,0.00
2018-06-15T01:47:26.094Z,0.00
2018-06-15T01:48:25.988Z,0.00
2018-06-15T01:49:25.897Z,0.00
2018-06-15T01:50:26.093Z,0.00
2018-06-15T01:51:25.703Z,0.00
2018-06-15T01:52:25.612Z,0.00
2018-06-15T01:53:25.508Z,0.00
2018-06-15T01:54:25.419Z,0.00
2018-06-15T01:55:25.326Z,0.00
2018-06-15T01:56:25.223Z,0.00
2018-06-15T01:57:25.138Z,0.00
2018-06-15T01:58:25.031Z,0.00
2018-06-15T01:59:24.942Z,0.00
2018-06-15T02:00:24.849Z,0.00
2018-06-15T02:01:24.888Z,0.00
2018-06-15T02:02:24.654Z,0.00
2018-06-15T02:03:24.564Z,4.00
2018-06-15T02:04:24.462Z,4.00
2018-06-15T02:05:24.369Z,4.00
2018-06-15T02:06:24.266Z,4.00
2018-06-15T02:07:24.176Z,4.00
2018-06-15T02:08:24.084Z,0.00
2018-06-15T02:09:23.981Z,4.00
2018-06-15T02:10:23.899Z,4.00
2018-06-15T02:11:23.788Z,4.00
2018-06-15T02:12:23.696Z,8.00
2018-06-15T02:13:23.640Z,4.00
2018-06-15T02:14:23.503Z,8.00
2018-06-15T02:15:23.412Z,8.00
2018-06-15T02:16:23.322Z,8.00
2018-06-15T02:17:23.217Z,12.00
2018-06-15T02:18:23.127Z,12.00
2018-06-15T02:19:23.024Z,12.00
2018-06-15T02:20:23.183Z,12.00
2018-06-15T02:21:22.841Z,16.00
2018-06-15T02:22:22.740Z,20.00
2018-06-15T02:23:22.649Z,20.00
2018-06-15T02:24:22.556Z,20.00
2018-06-15T02:25:22.453Z,24.00
2018-06-15T02:26:22.362Z,24.00
2018-06-15T02:27:22.274Z,28.00
2018-06-15T02:28:22.168Z,28.00
2018-06-15T02:29:22.078Z,32.00
2018-06-15T02:30:21.975Z,36.00
2018-06-15T02:31:21.884Z,40.00
2018-06-15T02:32:21.794Z,44.00
2018-06-15T02:33:21.691Z,48.00
2018-06-15T02:34:21.599Z,52.00
2018-06-15T02:35:21.509Z,60.00
2018-06-15T02:36:21.405Z,64.00
2018-06-15T02:37:21.319Z,68.00
2018-06-15T02:38:21.217Z,76.00
2018-06-15T02:39:21.120Z,80.00
2018-06-15T02:40:21.028Z,84.00
2018-06-15T02:41:20.926Z,88.00
2018-06-15T02:42:20.841Z,92.00
2018-06-15T02:43:20.744Z,96.00
2018-06-15T02:44:20.640Z,104.00
2018-06-15T02:45:20.583Z,104.00
2018-06-15T02:46:20.458Z,112.00
2018-06-15T02:47:20.357Z,116.00
2018-06-15T02:48:20.269Z,124.00
2018-06-15T02:49:20.174Z,128.00
2018-06-15T02:50:20.071Z,136.00
2018-06-15T02:51:19.980Z,144.00
2018-06-15T02:52:19.888Z,152.00
2018-06-15T02:53:19.785Z,164.00
2018-06-15T02:54:19.696Z,176.00
2018-06-15T02:55:19.604Z,184.00
2018-06-15T02:56:19.501Z,196.00
2018-06-15T02:57:19.411Z,204.00
2018-06-15T02:58:19.307Z,216.00
2018-06-15T02:59:19.215Z,224.00
2018-06-15T03:00:19.125Z,240.00
2018-06-15T03:01:19.022Z,256.00
2018-06-15T03:02:18.931Z,272.00
2018-06-15T03:03:18.828Z,292.00
2018-06-15T03:04:18.736Z,312.00
2018-06-15T03:05:18.681Z,336.00
2018-06-15T03:06:18.542Z,356.00
2018-06-15T03:07:18.456Z,376.00
2018-06-15T03:08:18.362Z,396.00
2018-06-15T03:09:18.258Z,408.00
2018-06-15T03:10:18.167Z,424.00
2018-06-15T03:11:18.075Z,444.00
2018-06-15T03:12:17.972Z,460.00
2018-06-15T03:13:17.882Z,484.00
2018-06-15T03:14:17.791Z,504.00
2018-06-15T03:15:17.687Z,528.00
2018-06-15T03:16:17.597Z,560.00
2018-06-15T03:17:17.494Z,600.00
2018-06-15T03:18:17.402Z,636.00
2018-06-15T03:19:17.313Z,672.00
2018-06-15T03:20:17.209Z,708.00
2018-06-15T03:21:17.121Z,744.00
2018-06-15T03:22:17.027Z,784.00
2018-06-15T03:23:16.926Z,820.00
2018-06-15T03:24:16.832Z,856.00
2018-06-15T03:25:17.042Z,888.00
2018-06-15T03:26:16.639Z,928.00
2018-06-15T03:27:16.548Z,964.00
2018-06-15T03:28:16.446Z,996.00
2018-06-15T03:29:16.354Z,1032.00
2018-06-15T03:30:16.262Z,1068.00
2018-06-15T03:31:16.160Z,1112.00
2018-06-15T03:32:16.070Z,1152.00
2018-06-15T03:33:15.977Z,1196.00
2018-06-15T03:34:15.874Z,1240.00
2018-06-15T03:35:15.789Z,1292.00
2018-06-15T03:36:15.693Z,1344.00
2018-06-15T03:37:15.592Z,1404.00
2018-06-15T03:38:15.499Z,1464.00
2018-06-15T03:39:15.407Z,1532.00
2018-06-15T03:40:15.304Z,1592.00
2018-06-15T03:41:15.221Z,1660.00
2018-06-15T03:42:15.110Z,1728.00
2018-06-15T03:43:15.019Z,1800.00
2018-06-15T03:44:14.929Z,1868.00
2018-06-15T03:45:14.829Z,1932.00
2018-06-15T03:46:14.734Z,1992.00
2018-06-15T03:47:14.644Z,2052.00
2018-06-15T03:48:14.540Z,2108.00
2018-06-15T03:49:14.496Z,2164.00
2018-06-15T03:50:14.360Z,2220.00
2018-06-15T03:51:14.257Z,2276.00
2018-06-15T03:52:14.164Z,2328.00
2018-06-15T03:53:14.075Z,2380.00
2018-06-15T03:54:13.972Z,2428.00
2018-06-15T03:55:14.131Z,2488.00
2018-06-15T03:56:13.790Z,2556.00
2018-06-15T03:57:13.686Z,2620.00
2018-06-15T03:58:13.595Z,2688.00
2018-06-15T03:59:13.494Z,2760.00
2018-06-15T04:00:13.402Z,2836.00
2018-06-15T04:01:13.323Z,2908.00
2018-06-15T04:02:13.220Z,2976.00
2018-06-15T04:03:13.118Z,3044.00
2018-06-15T04:04:13.025Z,3104.00
2018-06-15T04:05:13.235Z,3160.00
2018-06-15T04:06:12.833Z,3216.00
2018-06-15T04:07:12.743Z,3272.00
2018-06-15T04:08:12.651Z,3328.00
2018-06-15T04:09:12.547Z,3372.00
2018-06-15T04:10:12.455Z,3416.00
2018-06-15T04:11:12.365Z,3464.00
2018-06-15T04:12:12.263Z,3520.00
2018-06-15T04:13:12.214Z,3588.00
2018-06-15T04:14:12.080Z,3644.00
2018-06-15T04:15:11.976Z,3692.00
2018-06-15T04:16:11.888Z,3736.00
2018-06-15T04:17:11.795Z,3780.00
2018-06-15T04:18:11.694Z,3828.00
2018-06-15T04:19:11.613Z,3880.00
2018-06-15T04:20:11.511Z,3916.00
2018-06-15T04:21:11.407Z,3964.00
2018-06-15T04:22:11.315Z,4016.00
2018-06-15T04:23:11.225Z,4064.00
2018-06-15T04:24:11.122Z,4100.00
2018-06-15T04:25:11.031Z,4140.00
2018-06-15T04:26:10.941Z,4192.00
2018-06-15T04:27:10.849Z,4232.00
2018-06-15T04:28:10.745Z,4292.00
2018-06-15T04:29:10.655Z,4352.00
2018-06-15T04:30:10.564Z,4420.00
2018-06-15T04:31:10.461Z,4484.00
2018-06-15T04:32:10.371Z,4576.00
2018-06-15T04:33:10.279Z,4684.00
2018-06-15T04:34:10.176Z,4784.00
2018-06-15T04:35:10.086Z,4864.00
2018-06-15T04:36:09.994Z,4932.00
2018-06-15T04:37:09.904Z,4996.00
2018-06-15T04:38:09.803Z,5064.00
2018-06-15T04:39:09.709Z,5104.00
2018-06-15T04:40:09.870Z,5084.00
2018-06-15T04:41:09.516Z,5044.00
2018-06-15T04:42:09.425Z,5008.00
2018-06-15T04:43:09.334Z,4964.00
2018-06-15T04:44:09.242Z,4920.00
2018-06-15T04:45:09.141Z,4864.00
2018-06-15T04:46:09.049Z,4804.00
2018-06-15T04:47:08.959Z,4772.00
2018-06-15T04:48:08.869Z,4744.00
2018-06-15T04:49:08.764Z,4732.00
2018-06-15T04:50:08.673Z,4712.00
2018-06-15T04:51:08.586Z,4708.00
2018-06-15T04:52:08.482Z,4756.00
2018-06-15T04:53:08.390Z,4896.00
2018-06-15T04:54:08.298Z,5072.00
2018-06-15T04:55:08.206Z,5272.00
2018-06-15T04:56:08.104Z,5572.00
2018-06-15T04:57:08.013Z,5940.00
2018-06-15T04:58:07.921Z,6272.00
2018-06-15T04:59:07.832Z,6388.00
2018-06-15T05:00:07.979Z,6444.00
2018-06-15T05:01:07.638Z,6464.00
2018-06-15T05:02:07.547Z,6476.00
2018-06-15T05:03:07.455Z,6452.00
2018-06-15T05:04:07.352Z,6476.00
2018-06-15T05:05:07.263Z,6516.00
2018-06-15T05:06:07.175Z,6548.00
2018-06-15T05:07:07.079Z,6592.00
2018-06-15T05:08:06.976Z,6676.00
2018-06-15T05:09:06.942Z,6820.00
2018-06-15T05:10:06.798Z,6996.00
2018-06-15T05:11:06.706Z,7136.00
2018-06-15T05:12:06.602Z,7252.00
2018-06-15T05:13:06.512Z,7340.00
2018-06-15T05:14:06.418Z,7464.00
2018-06-15T05:15:06.329Z,7612.00
2018-06-15T05:16:06.239Z,7768.00
2018-06-15T05:17:06.134Z,7928.00
2018-06-15T05:18:06.044Z,8100.00
2018-06-15T05:19:05.952Z,8312.00
2018-06-15T05:20:06.122Z,8504.00
2018-06-15T05:21:05.773Z,8608.00
2018-06-15T05:22:05.667Z,8580.00
2018-06-15T05:23:05.577Z,8496.00
2018-06-15T05:24:05.485Z,8408.00
2018-06-15T05:25:05.395Z,8304.00
2018-06-15T05:26:05.304Z,8164.00
2018-06-15T05:27:05.201Z,8020.00
2018-06-15T05:28:05.111Z,7916.00
2018-06-15T05:29:05.019Z,7848.00
2018-06-15T05:30:04.946Z,7804.00
2018-06-15T05:31:04.851Z,7796.00
2018-06-15T05:32:04.734Z,7816.00
2018-06-15T05:33:04.644Z,7868.00
2018-06-15T05:34:04.552Z,7944.00
2018-06-15T05:35:04.463Z,8028.00
2018-06-15T05:36:04.370Z,8104.00
2018-06-15T05:37:04.280Z,8152.00
2018-06-15T05:38:04.178Z,8144.00
2018-06-15T05:39:04.086Z,8096.00
2018-06-15T05:40:03.995Z,8024.00
2018-06-15T05:41:03.904Z,7920.00
2018-06-15T05:42:03.813Z,7792.00
2018-06-15T05:43:03.711Z,7680.00
2018-06-15T05:44:03.618Z,7568.00
2018-06-15T05:45:03.529Z,7472.00
2018-06-15T05:46:03.438Z,7360.00
2018-06-15T05:47:03.347Z,7252.00
2018-06-15T05:48:03.256Z,7220.00
2018-06-15T05:49:03.154Z,7252.00
2018-06-15T05:50:03.063Z,7348.00
2018-06-15T05:51:02.971Z,7484.00
2018-06-15T05:52:02.883Z,7632.00
2018-06-15T05:53:02.789Z,7796.00
2018-06-15T05:54:02.703Z,7980.00
2018-06-15T05:55:02.597Z,8180.00
2018-06-15T05:56:02.505Z,8432.00
2018-06-15T05:57:02.415Z,8796.00
2018-06-15T05:58:02.323Z,9208.00
2018-06-15T05:59:02.233Z,9612.00
2018-06-15T06:00:02.154Z,9884.00
2018-06-15T06:01:02.055Z,9996.00
2018-06-15T06:02:01.949Z,10004.00
2018-06-15T06:03:01.856Z,9896.00
2018-06-15T06:04:01.850Z,9748.00
2018-06-15T06:05:01.676Z,9552.00
2018-06-15T06:06:01.585Z,9328.00
2018-06-15T06:07:01.494Z,9140.00
2018-06-15T06:08:01.403Z,8988.00
2018-06-15T06:09:01.301Z,8964.00
2018-06-15T06:10:01.208Z,9108.00
2018-06-15T06:11:01.118Z,9356.00
2018-06-15T06:12:01.026Z,9676.00
2018-06-15T06:13:00.937Z,10004.00
2018-06-15T06:14:00.844Z,10332.00
2018-06-15T06:15:00.754Z,10656.00
2018-06-15T06:16:00.652Z,10944.00
2018-06-15T06:17:00.559Z,11176.00
2018-06-15T06:18:00.473Z,11360.00
2018-06-15T06:19:00.378Z,11552.00
2018-06-15T06:20:00.347Z,11732.00
2018-06-15T06:21:00.196Z,11828.00
2018-06-15T06:22:00.107Z,11824.00
2018-06-15T06:23:00.017Z,11716.00
2018-06-15T06:23:59.913Z,11592.00
2018-06-15T06:25:00.074Z,11496.00
2018-06-15T06:25:59.731Z,11396.00
2018-06-15T06:26:59.641Z,11324.00
2018-06-15T06:27:59.548Z,11308.00
2018-06-15T06:28:59.459Z,11340.00
2018-06-15T06:29:59.367Z,11364.00
2018-06-15T06:30:59.276Z,11380.00
2018-06-15T06:31:59.185Z,11372.00
2018-06-15T06:32:59.095Z,11316.00
2018-06-15T06:33:58.991Z,11144.00
2018-06-15T06:34:58.900Z,10896.00
2018-06-15T06:35:58.809Z,10676.00
2018-06-15T06:36:58.725Z,10500.00
2018-06-15T06:37:58.694Z,10432.00
2018-06-15T06:38:58.536Z,10464.00
2018-06-15T06:39:58.448Z,10556.00
2018-06-15T06:40:58.355Z,10668.00
2018-06-15T06:41:58.265Z,10716.00
2018-06-15T06:42:58.173Z,10628.00
2018-06-15T06:43:58.073Z,10416.00
2018-06-15T06:44:58.230Z,10148.00
2018-06-15T06:45:57.888Z,9908.00
2018-06-15T06:46:57.798Z,9728.00
2018-06-15T06:47:57.707Z,9636.00
2018-06-15T06:48:57.617Z,9644.00
2018-06-15T06:49:57.528Z,9728.00
2018-06-15T06:50:57.436Z,9904.00
2018-06-15T06:51:57.344Z,10084.00
2018-06-15T06:52:57.254Z,10228.00
2018-06-15T06:53:57.163Z,10304.00
2018-06-15T06:54:57.072Z,10280.00
2018-06-15T06:55:56.981Z,10108.00
2018-06-15T06:56:56.879Z,9868.00
2018-06-15T06:57:56.789Z,9596.00
2018-06-15T06:58:56.696Z,9256.00
2018-06-15T06:59:56.860Z,8868.00
2018-06-15T07:00:56.514Z,8588.00
2018-06-15T07:01:56.424Z,8504.00
2018-06-15T07:02:56.338Z,8596.00
2018-06-15T07:03:56.243Z,8736.00
2018-06-15T07:04:56.151Z,8960.00
2018-06-15T07:05:56.061Z,9200.00
2018-06-15T07:06:55.970Z,9396.00
2018-06-15T07:07:55.879Z,9484.00
2018-06-15T07:08:55.789Z,9500.00
2018-06-15T07:09:55.935Z,9464.00
2018-06-15T07:10:55.595Z,9432.00
2018-06-15T07:11:55.502Z,9404.00
2018-06-15T07:12:55.413Z,9348.00
2018-06-15T07:13:55.324Z,9292.00
2018-06-15T07:14:55.231Z,9356.00
2018-06-15T07:15:55.144Z,9552.00
2018-06-15T07:16:55.055Z,9756.00
2018-06-15T07:17:54.958Z,10032.00
2018-06-15T07:18:54.869Z,10388.00
2018-06-15T07:19:54.776Z,10812.00
2018-06-15T07:20:54.687Z,11236.00
2018-06-15T07:21:54.594Z,11660.00
2018-06-15T07:22:54.493Z,12108.00
2018-06-15T07:23:54.409Z,12336.00
2018-06-15T07:24:54.310Z,12472.00
2018-06-15T07:25:54.220Z,12588.00
2018-06-15T07:26:54.128Z,12840.00
2018-06-15T07:27:54.039Z,13176.00
2018-06-15T07:28:53.946Z,13608.00
2018-06-15T07:29:53.856Z,13916.00
2018-06-15T07:30:53.765Z,14264.00
2018-06-15T07:31:53.676Z,14628.00
2018-06-15T07:32:53.584Z,15068.00
2018-06-15T07:33:53.494Z,15512.00
2018-06-15T07:34:53.416Z,16012.00
2018-06-15T07:35:53.312Z,16608.00
2018-06-15T07:36:53.220Z,17472.00
2018-06-15T07:37:53.120Z,18112.00
2018-06-15T07:38:53.038Z,18720.00
2018-06-15T07:39:52.937Z,19264.00
2018-06-15T07:40:52.845Z,19552.00
2018-06-15T07:41:52.754Z,19776.00
2018-06-15T07:42:52.664Z,19936.00
2018-06-15T07:43:52.572Z,20032.00
2018-06-15T07:44:52.482Z,20128.00
2018-06-15T07:45:52.390Z,20288.00
2018-06-15T07:46:52.301Z,20480.00
2018-06-15T07:47:52.222Z,20864.00
2018-06-15T07:48:52.118Z,21120.00
2018-06-15T07:49:52.028Z,21568.00
2018-06-15T07:50:51.937Z,22112.00
2018-06-15T07:51:51.848Z,23008.00
2018-06-15T07:52:51.756Z,24160.00
2018-06-15T07:53:51.664Z,24960.00
2018-06-15T07:54:51.573Z,25984.00
2018-06-15T07:55:51.483Z,26816.00
2018-06-15T07:56:51.393Z,27392.00
2018-06-15T07:57:51.301Z,27680.00
2018-06-15T07:58:51.222Z,27424.00
2018-06-15T07:59:51.133Z,27136.00
2018-06-15T08:00:51.040Z,25760.00
2018-06-15T08:01:50.950Z,24800.00
2018-06-15T08:02:50.858Z,24288.00
2018-06-15T08:03:50.769Z,24256.00
2018-06-15T08:04:50.677Z,24416.00
2018-06-15T08:05:50.587Z,24544.00
2018-06-15T08:06:50.495Z,24608.00
2018-06-15T08:07:50.406Z,24480.00
2018-06-15T08:08:50.315Z,24224.00
2018-06-15T08:09:50.238Z,23840.00
2018-06-15T08:10:50.146Z,23392.00
2018-06-15T08:11:50.062Z,23008.00
2018-06-15T08:12:49.962Z,22688.00
2018-06-15T08:13:49.872Z,22272.00
2018-06-15T08:14:49.782Z,21504.00
2018-06-15T08:15:49.735Z,20160.00
2018-06-15T08:16:49.612Z,18624.00
2018-06-15T08:17:49.524Z,17312.00
2018-06-15T08:18:49.431Z,16256.00
2018-06-15T08:19:49.341Z,16248.00
2018-06-15T08:20:49.253Z,17344.00
2018-06-15T08:21:49.159Z,17824.00
2018-06-15T08:22:49.069Z,17856.00
2018-06-15T08:23:48.990Z,17856.00
2018-06-15T08:24:48.900Z,17952.00
2018-06-15T08:25:48.807Z,17344.00
2018-06-15T08:26:48.717Z,16112.00
2018-06-15T08:27:48.677Z,15928.00
2018-06-15T08:28:48.536Z,17184.00
2018-06-15T08:29:48.445Z,18944.00
2018-06-15T08:30:48.365Z,20480.00
2018-06-15T08:31:48.275Z,21248.00
2018-06-15T08:32:48.184Z,21536.00
2018-06-15T08:33:48.104Z,22240.00
2018-06-15T08:34:48.003Z,22912.00
2018-06-15T08:35:47.913Z,23136.00
2018-06-15T08:36:47.834Z,23072.00
2018-06-15T08:37:47.751Z,23072.00
2018-06-15T08:38:47.653Z,23616.00
2018-06-15T08:39:47.561Z,24064.00
2018-06-15T08:40:47.471Z,24160.00
2018-06-15T08:41:47.382Z,23648.00
2018-06-15T08:42:47.300Z,23328.00
2018-06-15T08:43:47.211Z,23168.00
2018-06-15T08:44:47.120Z,22464.00
2018-06-15T08:45:47.033Z,21312.00
2018-06-15T08:46:46.938Z,21376.00
2018-06-15T08:47:46.849Z,22400.00
2018-06-15T08:48:46.759Z,24064.00
2018-06-15T08:49:46.719Z,25248.00
2018-06-15T08:50:46.589Z,26528.00
2018-06-15T08:51:46.496Z,27392.00
2018-06-15T08:52:46.433Z,24160.00
2018-06-15T08:53:46.315Z,29088.00
2018-06-15T08:54:46.224Z,28640.00
2018-06-15T08:55:46.147Z,27840.00
2018-06-15T08:56:46.097Z,25152.00
2018-06-15T08:57:45.964Z,20768.00
2018-06-15T08:58:45.873Z,17216.00
2018-06-15T08:59:46.033Z,15636.00
2018-06-15T09:00:45.704Z,16368.00
2018-06-15T09:01:45.629Z,18112.00
2018-06-15T09:02:45.523Z,20736.00
2018-06-15T09:03:45.431Z,23872.00
2018-06-15T09:04:45.344Z,27232.00
2018-06-15T09:05:45.263Z,28032.00
2018-06-15T09:06:45.171Z,28768.00
2018-06-15T09:07:45.082Z,27872.00
2018-06-15T09:08:44.991Z,28096.00
2018-06-15T09:09:44.901Z,29312.00
2018-06-15T09:10:44.822Z,27904.00
2018-06-15T09:11:44.729Z,22880.00
2018-06-15T09:12:44.639Z,19968.00
2018-06-15T09:13:44.549Z,18816.00
2018-06-15T09:14:44.470Z,17312.00
2018-06-15T09:15:44.381Z,16520.00
2018-06-15T09:16:44.288Z,16048.00
2018-06-15T09:17:44.205Z,14984.00
2018-06-15T09:18:44.119Z,13280.00
2018-06-15T09:19:44.029Z,11888.00
2018-06-15T09:20:43.941Z,11936.00
2018-06-15T09:21:43.847Z,12692.00
2018-06-15T09:22:43.758Z,14360.00
2018-06-15T09:23:43.678Z,16384.00
2018-06-15T09:24:43.588Z,18176.00
2018-06-15T09:25:43.497Z,19104.00
2018-06-15T09:26:43.405Z,20000.00
2018-06-15T09:27:43.329Z,21632.00
2018-06-15T09:28:43.239Z,24192.00
2018-06-15T09:29:43.145Z,26560.00
2018-06-15T09:30:43.085Z,26816.00
2018-06-15T09:31:42.965Z,28896.00
2018-06-15T09:32:42.933Z,23680.00
2018-06-15T09:33:42.790Z,21152.00
2018-06-15T09:34:42.704Z,19904.00
2018-06-15T09:35:42.615Z,18880.00
2018-06-15T09:36:42.523Z,17440.00
2018-06-15T09:37:42.432Z,16424.00
2018-06-15T09:38:42.341Z,16336.00
2018-06-15T09:39:42.262Z,17344.00
2018-06-15T09:40:42.175Z,18368.00
2018-06-15T09:41:42.080Z,20096.00
2018-06-15T09:42:41.991Z,23392.00
2018-06-15T09:43:41.900Z,27840.00
2018-06-15T09:44:41.822Z,36480.00
2018-06-15T09:45:41.730Z,40704.00
2018-06-15T09:46:41.639Z,38400.00
2018-06-15T09:47:41.552Z,33728.00
2018-06-15T09:48:41.458Z,34368.00
2018-06-15T09:49:41.379Z,37024.00
2018-06-15T09:50:41.289Z,44448.00
2018-06-15T09:51:41.197Z,55392.00
2018-06-15T09:52:41.106Z,51552.00
2018-06-15T09:53:41.024Z,49888.00
2018-06-15T09:54:40.937Z,54304.00
2018-06-15T09:55:40.848Z,48352.00
2018-06-15T09:56:40.756Z,50560.00
2018-06-15T09:57:40.677Z,60800.00
2018-06-15T09:58:40.589Z,47680.00
2018-06-15T09:59:40.495Z,31072.00
2018-06-15T10:00:40.419Z,31168.00
2018-06-15T10:01:40.327Z,31808.00
2018-06-15T10:02:40.236Z,59776.00
2018-06-15T10:03:40.162Z,39776.00
2018-06-15T10:04:40.068Z,29856.00
2018-06-15T10:05:39.989Z,43648.00
2018-06-15T10:06:39.897Z,46560.00
2018-06-15T10:07:39.808Z,49504.00
2018-06-15T10:08:39.730Z,40672.00
2018-06-15T10:09:39.652Z,76000.00
2018-06-15T10:10:39.560Z,89952.00
2018-06-15T10:11:39.470Z,83424.00
2018-06-15T10:12:39.394Z,28480.00
2018-06-15T10:13:39.302Z,23872.00
2018-06-15T10:14:39.221Z,22304.00
2018-06-15T10:15:39.134Z,21248.00
2018-06-15T10:16:39.088Z,19680.00
2018-06-15T10:17:38.962Z,17824.00
2018-06-15T10:18:38.883Z,16484.00
2018-06-15T10:19:39.043Z,17888.00
2018-06-15T10:20:38.716Z,21056.00
2018-06-15T10:21:38.624Z,24800.00
2018-06-15T10:22:38.547Z,26528.00
2018-06-15T10:23:38.456Z,35264.00
2018-06-15T10:24:38.377Z,73408.00
2018-06-15T10:25:38.285Z,73344.00
2018-06-15T10:26:38.220Z,55136.00
2018-06-15T10:27:38.118Z,30144.00
2018-06-15T10:28:38.026Z,30848.00
2018-06-15T10:29:37.947Z,83648.00
2018-06-15T10:30:37.857Z,55552.00
2018-06-15T10:31:37.779Z,22304.00
2018-06-15T10:32:37.688Z,21248.00
2018-06-15T10:33:37.609Z,18176.00
2018-06-15T10:34:37.518Z,19296.00
2018-06-15T10:35:37.440Z,21152.00
2018-06-15T10:36:37.349Z,23264.00
2018-06-15T10:37:37.259Z,23744.00
2018-06-15T10:38:37.180Z,22432.00
2018-06-15T10:39:37.133Z,20096.00
2018-06-15T10:40:37.011Z,19680.00
2018-06-15T10:41:36.921Z,20064.00
2018-06-15T10:42:36.831Z,20896.00
2018-06-15T10:43:36.751Z,22304.00
2018-06-15T10:44:36.660Z,24064.00
2018-06-15T10:45:36.593Z,28352.00
2018-06-15T10:46:36.491Z,30208.00
2018-06-15T10:47:36.405Z,25568.00
2018-06-15T10:48:36.323Z,29344.00
2018-06-15T10:49:36.230Z,45056.00
2018-06-15T10:50:36.142Z,46080.00
2018-06-15T10:51:36.063Z,52736.00
2018-06-15T10:52:35.971Z,45024.00
2018-06-15T10:53:35.881Z,43968.00
2018-06-15T10:54:35.802Z,57216.00
2018-06-15T10:55:35.711Z,52128.00
2018-06-15T10:56:35.634Z,64608.00
2018-06-15T10:57:35.543Z,62496.00
2018-06-15T10:58:35.452Z,58912.00
2018-06-15T10:59:35.372Z,73344.00
2018-06-15T11:00:35.282Z,65920.00
2018-06-15T11:01:35.192Z,65824.00
2018-06-15T11:02:35.113Z,33856.00
2018-06-15T11:03:35.024Z,36384.00
2018-06-15T11:04:34.945Z,44736.00
2018-06-15T11:05:34.853Z,28448.00
2018-06-15T11:06:34.779Z,28096.00
2018-06-15T11:07:34.685Z,28928.00
2018-06-15T11:08:34.608Z,30496.00
2018-06-15T11:09:34.517Z,31296.00
2018-06-15T11:10:34.425Z,36352.00
2018-06-15T11:11:34.347Z,29504.00
2018-06-15T11:12:34.255Z,26720.00
2018-06-15T11:13:34.177Z,25248.00
2018-06-15T11:14:34.146Z,23584.00
2018-06-15T11:15:34.008Z,25824.00
2018-06-15T11:16:33.916Z,56352.00
2018-06-15T11:17:33.827Z,35552.00
2018-06-15T11:18:33.752Z,30816.00
2018-06-15T11:19:33.657Z,31104.00
2018-06-15T11:20:33.580Z,31360.00
2018-06-15T11:21:33.488Z,33056.00
2018-06-15T11:22:33.410Z,33504.00
2018-06-15T11:23:33.359Z,31328.00
2018-06-15T11:24:33.239Z,28704.00
2018-06-15T11:25:33.150Z,27104.00
2018-06-15T11:26:33.065Z,25344.00
2018-06-15T11:27:32.980Z,23744.00
2018-06-15T11:28:32.893Z,22784.00
2018-06-15T11:29:32.799Z,22144.00
2018-06-15T11:30:32.733Z,20960.00
2018-06-15T11:31:32.630Z,19680.00
2018-06-15T11:32:32.551Z,18432.00
2018-06-15T11:33:32.460Z,17120.00
2018-06-15T11:34:32.371Z,15560.00
2018-06-15T11:35:32.291Z,14264.00
2018-06-15T11:36:32.200Z,13132.00
2018-06-15T11:37:32.121Z,12388.00
2018-06-15T11:38:32.032Z,11932.00
2018-06-15T11:39:31.942Z,11356.00
2018-06-15T11:40:31.861Z,10980.00
2018-06-15T11:41:31.773Z,10932.00
2018-06-15T11:42:31.682Z,11184.00
2018-06-15T11:43:31.602Z,11760.00
2018-06-15T11:44:31.516Z,13048.00
2018-06-15T11:45:31.420Z,14632.00
2018-06-15T11:46:31.331Z,15824.00
2018-06-15T11:47:31.253Z,16348.00
2018-06-15T11:48:31.163Z,16036.00
2018-06-15T11:49:31.069Z,14448.00
2018-06-15T11:50:30.993Z,13120.00
2018-06-15T11:51:30.900Z,11932.00
2018-06-15T11:52:30.811Z,10792.00
2018-06-15T11:53:30.721Z,9708.00
2018-06-15T11:54:30.640Z,8716.00
2018-06-15T11:55:30.550Z,8024.00
2018-06-15T11:56:30.458Z,7688.00
2018-06-15T11:57:30.408Z,7356.00
2018-06-15T11:58:30.302Z,6804.00
2018-06-15T11:59:30.199Z,6300.00
2018-06-15T12:00:30.109Z,5868.00
2018-06-15T12:01:30.018Z,5428.00
2018-06-15T12:02:29.926Z,5052.00
2018-06-15T12:03:29.851Z,4828.00
2018-06-15T12:04:29.756Z,4792.00
2018-06-15T12:05:29.667Z,4868.00
2018-06-15T12:06:29.576Z,5000.00
2018-06-15T12:07:29.485Z,5124.00
2018-06-15T12:08:29.396Z,5144.00
2018-06-15T12:09:29.316Z,5268.00
2018-06-15T12:10:29.226Z,5772.00